20:47
Airports
History
Links
Donate
Help keep this website running!
PayPal
Bitcoin
This page is community maintained. The information is intended for PC simulator navigation or reference.
Always use approved charts for navigation.
FA00
Beaty Farms Inc
Beaty Farms Inc (FA00)
Parkland, Florida, United States (33076)
4
Lat/Lng:26° 19' 1.29" N / 80° 15' 59.17" W
26.317024 / -80.266437
Elevation:13'ft / 4mMSL
ID / ICAO:FA00
Runways:1
Longest:09-27
Grass 917m / 3,010ft
Nearby Weather19:53 GMT 2017-09-19
Nearby weather at KFXE, Fort Lauderdale Executive located 10.2 nautical miles from FA00
Altimeter: 29.90
Visibility: 10.0 statute miles
Wind: 6 knots (from 090°)
Temp: 31°c / 88°f
Humidity: 62.5%

METAR: KFXE 191953Z 09006KT 10SM CLR 31/23 A2990 RMK AO2 SLP127 T03110228

(Powered by phpweather)
Nearby VORs <50NM
Nearby NDBs
Runway 09 / 27
Dimensions:917.3 x 45.7m 3010' x 150'ft
Surface:Grass
Runway 09 [A]Runway 27 [B]
Heading:086°TH 266°TH
Lat:
Lng:
26° 19' 0.25"N
80° 16' 15.66"W
26° 19' 2.32"N
80° 15' 42.69"W
User Notes and Comments
26° 19' 1.29" N / 80° 15' 59.17" W
Distance To
Airport ID:
Nearby Airports
(C) Fort Lauderdale Executive 10.2 NM
KFXE ( WX ) SE 144°
(C) Boca Raton 10.7 NM
KBCT ENE 66°
(C) Pompano Beach Airpark 10.8 NM
KPMP ( WX ) ESE 116°
4 Antiquers Aerodrome 12.5 NM
3X1 NE 35°
(R) Antiquers Aerodrome 12.5 NM
FD08 NE 35°
(R) Willis 16.3 NM
FA44 N 11°
(C) Fort Lauderdale/hollywood Intl 18.3 NM
KFLL ( WX ) SSE 157°
VFR Chart
Flight Planning at SkyVector.com